sensor_id;sensor_type;location;lat;lon;timestamp;pressure;altitude;pressure_sealevel;temperature;humidity
57048;BME280;42934;54.294;18.598;2022-09-14T00:02:06;99511.25;;;13.09;80.00
57048;BME280;42934;54.294;18.598;2022-09-14T00:04:36;99511.97;;;13.11;80.20
57048;BME280;42934;54.294;18.598;2022-09-14T00:07:06;99506.13;;;13.06;80.12
57048;BME280;42934;54.294;18.598;2022-09-14T00:09:37;99505.28;;;13.05;80.23
57048;BME280;42934;54.294;18.598;2022-09-14T00:12:06;99500.00;;;13.05;80.54
57048;BME280;42934;54.294;18.598;2022-09-14T00:14:37;99501.72;;;13.06;80.14
57048;BME280;42934;54.294;18.598;2022-09-14T00:17:07;99499.75;;;13.10;80.08
57048;BME280;42934;54.294;18.598;2022-09-14T00:19:36;99497.94;;;13.10;80.40
57048;BME280;42934;54.294;18.598;2022-09-14T00:22:05;99497.88;;;13.12;80.10
57048;BME280;42934;54.294;18.598;2022-09-14T00:24:34;99485.53;;;13.12;79.88
57048;BME280;42934;54.294;18.598;2022-09-14T00:27:05;99484.59;;;13.13;80.02
57048;BME280;42934;54.294;18.598;2022-09-14T00:29:35;99490.25;;;13.07;80.10
57048;BME280;42934;54.294;18.598;2022-09-14T00:32:04;99479.97;;;13.03;80.40
57048;BME280;42934;54.294;18.598;2022-09-14T00:34:34;99476.50;;;13.02;80.19
57048;BME280;42934;54.294;18.598;2022-09-14T00:37:03;99481.69;;;13.04;80.59
57048;BME280;42934;54.294;18.598;2022-09-14T00:39:32;99484.88;;;13.09;80.44
57048;BME280;42934;54.294;18.598;2022-09-14T00:42:02;99484.78;;;13.10;80.43
57048;BME280;42934;54.294;18.598;2022-09-14T00:44:59;99474.22;;;13.10;80.43
57048;BME280;42934;54.294;18.598;2022-09-14T00:47:30;99487.03;;;13.16;80.55
57048;BME280;42934;54.294;18.598;2022-09-14T00:50:02;99478.28;;;13.16;80.31
57048;BME280;42934;54.294;18.598;2022-09-14T00:52:34;99482.72;;;13.15;80.64
57048;BME280;42934;54.294;18.598;2022-09-14T00:55:08;99473.78;;;13.18;80.63
57048;BME280;42934;54.294;18.598;2022-09-14T00:57:39;99481.50;;;13.21;80.63
57048;BME280;42934;54.294;18.598;2022-09-14T01:00:14;99477.44;;;13.15;81.65
57048;BME280;42934;54.294;18.598;2022-09-14T01:02:44;99467.44;;;13.21;80.75
57048;BME280;42934;54.294;18.598;2022-09-14T01:05:13;99475.19;;;13.24;80.85
57048;BME280;42934;54.294;18.598;2022-09-14T01:11:32;99475.94;;;13.26;81.31
57048;BME280;42934;54.294;18.598;2022-09-14T01:14:10;99467.13;;;13.27;81.42
57048;BME280;42934;54.294;18.598;2022-09-14T01:16:51;99462.00;;;13.24;82.29
57048;BME280;42934;54.294;18.598;2022-09-14T01:19:29;99459.09;;;13.28;82.05
57048;BME280;42934;54.294;18.598;2022-09-14T01:22:10;99457.88;;;13.34;81.72
57048;BME280;42934;54.294;18.598;2022-09-14T01:24:45;99451.00;;;13.31;82.02
57048;BME280;42934;54.294;18.598;2022-09-14T01:27:28;99451.75;;;13.33;81.69
57048;BME280;42934;54.294;18.598;2022-09-14T01:30:05;99453.34;;;13.36;81.69
57048;BME280;42934;54.294;18.598;2022-09-14T01:32:40;99454.84;;;13.40;81.65
57048;BME280;42934;54.294;18.598;2022-09-14T01:35:14;99447.22;;;13.35;81.90
57048;BME280;42934;54.294;18.598;2022-09-14T01:37:49;99452.13;;;13.42;81.51
57048;BME280;42934;54.294;18.598;2022-09-14T01:40:22;99443.34;;;13.41;81.84
57048;BME280;42934;54.294;18.598;2022-09-14T01:43:00;99447.56;;;13.44;82.08
57048;BME280;42934;54.294;18.598;2022-09-14T01:45:32;99448.25;;;13.47;81.80
57048;BME280;42934;54.294;18.598;2022-09-14T01:48:07;99444.66;;;13.48;81.70
57048;BME280;42934;54.294;18.598;2022-09-14T01:50:40;99443.25;;;13.43;81.75
57048;BME280;42934;54.294;18.598;2022-09-14T01:53:13;99437.78;;;13.46;81.56
57048;BME280;42934;54.294;18.598;2022-09-14T01:55:47;99437.50;;;13.50;81.40
57048;BME280;42934;54.294;18.598;2022-09-14T01:58:22;99435.69;;;13.51;81.42
57048;BME280;42934;54.294;18.598;2022-09-14T02:00:55;99440.13;;;13.50;81.25
57048;BME280;42934;54.294;18.598;2022-09-14T02:03:30;99435.97;;;13.46;81.45
57048;BME280;42934;54.294;18.598;2022-09-14T02:06:05;99428.91;;;13.47;81.25
57048;BME280;42934;54.294;18.598;2022-09-14T02:08:37;99428.91;;;13.47;81.13
57048;BME280;42934;54.294;18.598;2022-09-14T02:11:06;99426.59;;;13.42;81.34
57048;BME280;42934;54.294;18.598;2022-09-14T02:13:37;99429.09;;;13.44;81.25
57048;BME280;42934;54.294;18.598;2022-09-14T02:16:07;99430.72;;;13.46;81.32
57048;BME280;42934;54.294;18.598;2022-09-14T02:18:37;99425.56;;;13.45;80.93
57048;BME280;42934;54.294;18.598;2022-09-14T02:21:11;99426.19;;;13.48;81.17
57048;BME280;42934;54.294;18.598;2022-09-14T02:23:42;99426.66;;;13.40;81.33
57048;BME280;42934;54.294;18.598;2022-09-14T02:26:12;99422.25;;;13.41;81.54
57048;BME280;42934;54.294;18.598;2022-09-14T02:28:42;99421.31;;;13.42;81.23
57048;BME280;42934;54.294;18.598;2022-09-14T02:31:20;99421.31;;;13.42;81.54
57048;BME280;42934;54.294;18.598;2022-09-14T02:33:59;99416.03;;;13.42;81.27
57048;BME280;42934;54.294;18.598;2022-09-14T02:36:38;99411.59;;;13.43;81.02
57048;BME280;42934;54.294;18.598;2022-09-14T02:39:21;99409.81;;;13.43;81.12
57048;BME280;42934;54.294;18.598;2022-09-14T02:41:58;99400.88;;;13.46;81.17
57048;BME280;42934;54.294;18.598;2022-09-14T02:44:34;99402.66;;;13.45;80.93
57048;BME280;42934;54.294;18.598;2022-09-14T02:47:12;99400.88;;;13.46;81.06
57048;BME280;42934;54.294;18.598;2022-09-14T02:49:47;99400.88;;;13.46;80.92
57048;BME280;42934;54.294;18.598;2022-09-14T02:52:25;99404.47;;;13.45;81.23
57048;BME280;42934;54.294;18.598;2022-09-14T02:54:59;99404.34;;;13.46;81.23
57048;BME280;42934;54.294;18.598;2022-09-14T02:57:31;99401.81;;;13.45;80.99
57048;BME280;42934;54.294;18.598;2022-09-14T03:00:02;99402.03;;;13.42;80.95
57048;BME280;42934;54.294;18.598;2022-09-14T03:02:31;99403.69;;;13.43;80.95
57048;BME280;42934;54.294;18.598;2022-09-14T03:05:01;99397.66;;;13.40;81.19
57048;BME280;42934;54.294;18.598;2022-09-14T03:07:30;99397.78;;;13.39;80.81
57048;BME280;42934;54.294;18.598;2022-09-14T03:09:59;99390.16;;;13.34;81.33
57048;BME280;42934;54.294;18.598;2022-09-14T03:12:28;99399.56;;;13.38;81.40
57048;BME280;42934;54.294;18.598;2022-09-14T03:14:57;99390.59;;;13.41;81.29
57048;BME280;42934;54.294;18.598;2022-09-14T03:17:29;99386.47;;;13.37;81.03
57048;BME280;42934;54.294;18.598;2022-09-14T03:19:58;99381.31;;;13.35;81.04
57048;BME280;42934;54.294;18.598;2022-09-14T03:22:27;99374.34;;;13.34;81.44
57048;BME280;42934;54.294;18.598;2022-09-14T03:24:56;99375.09;;;13.36;81.19
57048;BME280;42934;54.294;18.598;2022-09-14T03:27:26;99364.53;;;13.36;81.02
57048;BME280;42934;54.294;18.598;2022-09-14T03:29:55;99361.16;;;13.34;81.14
57048;BME280;42934;54.294;18.598;2022-09-14T03:32:24;99371.81;;;13.33;81.20
57048;BME280;42934;54.294;18.598;2022-09-14T03:34:55;99376.63;;;13.26;81.47
57048;BME280;42934;54.294;18.598;2022-09-14T03:37:24;99381.03;;;13.26;81.90
57048;BME280;42934;54.294;18.598;2022-09-14T03:39:54;99379.81;;;13.31;81.76
57048;BME280;42934;54.294;18.598;2022-09-14T03:42:23;99388.66;;;13.30;81.79
57048;BME280;42934;54.294;18.598;2022-09-14T03:44:52;99382.38;;;13.33;81.23
57048;BME280;42934;54.294;18.598;2022-09-14T03:47:21;99377.94;;;13.33;81.00
57048;BME280;42934;54.294;18.598;2022-09-14T03:49:51;99372.66;;;13.33;81.31
57048;BME280;42934;54.294;18.598;2022-09-14T03:52:22;99372.00;;;13.30;81.06
57048;BME280;42934;54.294;18.598;2022-09-14T03:54:51;99372.75;;;13.32;80.93
57048;BME280;42934;54.294;18.598;2022-09-14T03:57:20;99370.22;;;13.30;80.87
57048;BME280;42934;54.294;18.598;2022-09-14T03:59:50;99355.44;;;13.28;81.06
57048;BME280;42934;54.294;18.598;2022-09-14T04:02:19;99362.50;;;13.27;81.26
57048;BME280;42934;54.294;18.598;2022-09-14T04:04:48;99367.78;;;13.27;81.17
57048;BME280;42934;54.294;18.598;2022-09-14T04:07:18;99376.41;;;13.29;81.06
57048;BME280;42934;54.294;18.598;2022-09-14T04:09:48;99372.94;;;13.29;81.28
57048;BME280;42934;54.294;18.598;2022-09-14T04:12:17;99380.84;;;13.29;81.10
57048;BME280;42934;54.294;18.598;2022-09-14T04:14:47;99387.84;;;13.30;81.31
57048;BME280;42934;54.294;18.598;2022-09-14T04:17:16;99377.28;;;13.30;81.00
57048;BME280;42934;54.294;18.598;2022-09-14T04:19:45;99377.16;;;13.31;81.32
57048;BME280;42934;54.294;18.598;2022-09-14T04:22:15;99387.16;;;13.26;81.23
57048;BME280;42934;54.294;18.598;2022-09-14T04:24:44;99386.22;;;13.27;81.41
57048;BME280;42934;54.294;18.598;2022-09-14T04:27:15;99388.88;;;13.27;81.42
57048;BME280;42934;54.294;18.598;2022-09-14T04:29:47;99391.19;;;13.32;81.35
57048;BME280;42934;54.294;18.598;2022-09-14T04:32:17;99391.38;;;13.29;81.45
57048;BME280;42934;54.294;18.598;2022-09-14T04:34:48;99385.19;;;13.30;81.64
57048;BME280;42934;54.294;18.598;2022-09-14T04:37:17;99391.94;;;13.34;81.34
57048;BME280;42934;54.294;18.598;2022-09-14T04:39:46;99396.94;;;13.38;81.43
57048;BME280;42934;54.294;18.598;2022-09-14T04:42:17;99398.19;;;13.33;81.59
57048;BME280;42934;54.294;18.598;2022-09-14T04:44:46;99393.75;;;13.33;81.82
57048;BME280;42934;54.294;18.598;2022-09-14T04:47:16;99394.38;;;13.37;81.90
57048;BME280;42934;54.294;18.598;2022-09-14T04:49:45;99409.06;;;13.41;82.01
57048;BME280;42934;54.294;18.598;2022-09-14T04:52:14;99408.22;;;13.40;82.55
57048;BME280;42934;54.294;18.598;2022-09-14T04:54:43;99395.03;;;13.40;82.61
57048;BME280;42934;54.294;18.598;2022-09-14T04:57:13;99399.25;;;13.43;82.66
57048;BME280;42934;54.294;18.598;2022-09-14T04:59:43;99405.50;;;13.42;82.85
57048;BME280;42934;54.294;18.598;2022-09-14T05:02:13;99404.25;;;13.48;82.49
57048;BME280;42934;54.294;18.598;2022-09-14T05:04:42;99406.56;;;13.52;82.20
57048;BME280;42934;54.294;18.598;2022-09-14T05:07:11;99410.94;;;13.53;82.27
57048;BME280;42934;54.294;18.598;2022-09-14T05:09:41;99411.84;;;13.52;82.69
57048;BME280;42934;54.294;18.598;2022-09-14T05:12:10;99405.19;;;13.47;83.17
57048;BME280;42934;54.294;18.598;2022-09-14T05:14:39;99409.41;;;13.49;82.80
57048;BME280;42934;54.294;18.598;2022-09-14T05:17:10;99402.25;;;13.51;82.85
57048;BME280;42934;54.294;18.598;2022-09-14T05:19:39;99404.91;;;13.51;83.35
57048;BME280;42934;54.294;18.598;2022-09-14T05:22:08;99408.28;;;13.53;82.85
57048;BME280;42934;54.294;18.598;2022-09-14T05:24:38;99408.50;;;13.50;83.22
57048;BME280;42934;54.294;18.598;2022-09-14T05:27:07;99409.00;;;13.55;83.01
57048;BME280;42934;54.294;18.598;2022-09-14T05:29:36;99418.63;;;13.56;83.13
57048;BME280;42934;54.294;18.598;2022-09-14T05:32:08;99411.56;;;13.57;83.05
57048;BME280;42934;54.294;18.598;2022-09-14T05:34:37;99414.22;;;13.57;83.19
57048;BME280;42934;54.294;18.598;2022-09-14T05:37:07;99410.53;;;13.59;83.15
57048;BME280;42934;54.294;18.598;2022-09-14T05:39:36;99413.88;;;13.61;83.19
57048;BME280;42934;54.294;18.598;2022-09-14T05:42:05;99409.38;;;13.63;83.58
57048;BME280;42934;54.294;18.598;2022-09-14T05:44:34;99404.00;;;13.65;83.38
57048;BME280;42934;54.294;18.598;2022-09-14T05:47:04;99406.44;;;13.68;83.38
57048;BME280;42934;54.294;18.598;2022-09-14T05:49:35;99408.03;;;13.71;83.26
57048;BME280;42934;54.294;18.598;2022-09-14T05:52:04;99414.25;;;13.70;83.34
57048;BME280;42934;54.294;18.598;2022-09-14T05:54:33;99407.16;;;13.70;83.49
57048;BME280;42934;54.294;18.598;2022-09-14T05:57:03;99408.69;;;13.74;83.53
57048;BME280;42934;54.294;18.598;2022-09-14T05:59:32;99394.66;;;13.74;83.45
57048;BME280;42934;54.294;18.598;2022-09-14T06:02:01;99393.56;;;13.76;83.42
57048;BME280;42934;54.294;18.598;2022-09-14T06:04:31;99398.22;;;13.73;83.66
57048;BME280;42934;54.294;18.598;2022-09-14T06:07:02;99405.94;;;13.76;83.77
57048;BME280;42934;54.294;18.598;2022-09-14T06:09:45;99401.41;;;13.78;83.79
57048;BME280;42934;54.294;18.598;2022-09-14T06:12:15;99398.66;;;13.79;84.22
57048;BME280;42934;54.294;18.598;2022-09-14T06:14:44;99401.19;;;13.81;83.88
57048;BME280;42934;54.294;18.598;2022-09-14T06:17:14;99409.13;;;13.81;84.04
57048;BME280;42934;54.294;18.598;2022-09-14T06:19:43;99404.47;;;13.84;83.94
57048;BME280;42934;54.294;18.598;2022-09-14T06:22:13;99409.66;;;13.86;84.10
57048;BME280;42934;54.294;18.598;2022-09-14T06:24:43;99410.19;;;13.91;84.13
57048;BME280;42934;54.294;18.598;2022-09-14T06:27:12;99407.25;;;13.96;83.92
57048;BME280;42934;54.294;18.598;2022-09-14T06:29:42;99404.63;;;13.96;84.07
57048;BME280;42934;54.294;18.598;2022-09-14T06:32:11;99420.16;;;14.00;83.78
57048;BME280;42934;54.294;18.598;2022-09-14T06:34:40;99395.22;;;13.92;84.42
57048;BME280;42934;54.294;18.598;2022-09-14T06:37:10;99416.44;;;14.03;84.26
57048;BME280;42934;54.294;18.598;2022-09-14T06:39:41;99417.09;;;14.06;83.79
57048;BME280;42934;54.294;18.598;2022-09-14T06:42:10;99413.63;;;14.06;84.43
57048;BME280;42934;54.294;18.598;2022-09-14T06:44:39;99421.63;;;14.04;84.43
57048;BME280;42934;54.294;18.598;2022-09-14T06:47:09;99410.72;;;13.96;85.16
57048;BME280;42934;54.294;18.598;2022-09-14T06:49:38;99420.44;;;13.96;85.29
57048;BME280;42934;54.294;18.598;2022-09-14T06:52:07;99426.28;;;14.01;84.82
57048;BME280;42934;54.294;18.598;2022-09-14T06:54:36;99422.69;;;14.02;84.73
57048;BME280;42934;54.294;18.598;2022-09-14T06:57:07;99418.03;;;14.05;84.58
57048;BME280;42934;54.294;18.598;2022-09-14T06:59:36;99417.00;;;14.08;84.76
57048;BME280;42934;54.294;18.598;2022-09-14T07:02:07;99419.22;;;14.14;84.29
57048;BME280;42934;54.294;18.598;2022-09-14T07:04:36;99429.88;;;14.13;84.63
57048;BME280;42934;54.294;18.598;2022-09-14T07:07:06;99441.16;;;14.15;84.73
57048;BME280;42934;54.294;18.598;2022-09-14T07:09:37;99445.94;;;14.09;84.96
57048;BME280;42934;54.294;18.598;2022-09-14T07:12:18;99451.72;;;14.15;84.75
57048;BME280;42934;54.294;18.598;2022-09-14T07:14:47;99454.19;;;14.18;84.81
57048;BME280;42934;54.294;18.598;2022-09-14T07:17:17;99463.59;;;14.22;84.59
57048;BME280;42934;54.294;18.598;2022-09-14T07:19:46;99453.56;;;14.27;84.55
57048;BME280;42934;54.294;18.598;2022-09-14T07:22:15;99461.28;;;14.30;84.37
57048;BME280;42934;54.294;18.598;2022-09-14T07:24:45;99457.47;;;14.34;84.41
57048;BME280;42934;54.294;18.598;2022-09-14T07:27:14;99467.00;;;14.37;84.54
57048;BME280;42934;54.294;18.598;2022-09-14T07:29:45;99457.91;;;14.28;85.08
57048;BME280;42934;54.294;18.598;2022-09-14T07:32:14;99453.59;;;14.40;85.06
57048;BME280;42934;54.294;18.598;2022-09-14T07:34:44;99462.50;;;14.51;84.49
57048;BME280;42934;54.294;18.598;2022-09-14T07:37:13;99460.78;;;14.50;84.82
57048;BME280;42934;54.294;18.598;2022-09-14T07:39:42;99461.78;;;14.62;84.81
57048;BME280;42934;54.294;18.598;2022-09-14T07:42:12;99464.63;;;14.72;84.48
57048;BME280;42934;54.294;18.598;2022-09-14T07:44:41;99463.91;;;14.83;84.13
57048;BME280;42934;54.294;18.598;2022-09-14T07:47:11;99459.34;;;14.97;83.75
57048;BME280;42934;54.294;18.598;2022-09-14T07:49:41;99460.28;;;14.96;81.85
57048;BME280;42934;54.294;18.598;2022-09-14T07:52:10;99450.44;;;14.98;81.79
57048;BME280;42934;54.294;18.598;2022-09-14T07:54:39;99459.84;;;15.03;81.44
57048;BME280;42934;54.294;18.598;2022-09-14T07:57:09;99455.53;;;15.02;81.44
57048;BME280;42934;54.294;18.598;2022-09-14T07:59:38;99455.00;;;14.96;80.84
57048;BME280;42934;54.294;18.598;2022-09-14T08:02:09;99462.84;;;14.98;81.01
57048;BME280;42934;54.294;18.598;2022-09-14T08:04:40;99459.09;;;15.13;80.87
57048;BME280;42934;54.294;18.598;2022-09-14T08:07:09;99464.78;;;15.20;80.85
57048;BME280;42934;54.294;18.598;2022-09-14T08:09:38;99463.66;;;15.24;80.86
57048;BME280;42934;54.294;18.598;2022-09-14T08:12:07;99467.88;;;15.27;80.35
57048;BME280;42934;54.294;18.598;2022-09-14T08:14:37;99456.84;;;15.33;80.29
57048;BME280;42934;54.294;18.598;2022-09-14T08:17:06;99463.59;;;15.37;80.01
57048;BME280;42934;54.294;18.598;2022-09-14T08:19:36;99454.06;;;15.47;80.04
57048;BME280;42934;54.294;18.598;2022-09-14T08:22:09;99453.50;;;15.55;79.63
57048;BME280;42934;54.294;18.598;2022-09-14T08:24:38;99452.88;;;15.51;79.60
57048;BME280;42934;54.294;18.598;2022-09-14T08:27:08;99452.53;;;15.56;79.05
57048;BME280;42934;54.294;18.598;2022-09-14T08:29:39;99452.13;;;15.62;79.52
57048;BME280;42934;54.294;18.598;2022-09-14T08:32:10;99459.28;;;15.73;78.91
57048;BME280;42934;54.294;18.598;2022-09-14T08:34:40;99447.84;;;15.72;78.00
57048;BME280;42934;54.294;18.598;2022-09-14T08:37:11;99451.25;;;15.74;77.13
57048;BME280;42934;54.294;18.598;2022-09-14T08:39:40;99448.84;;;15.82;77.47
57048;BME280;42934;54.294;18.598;2022-09-14T08:42:17;99438.16;;;15.84;77.17
57048;BME280;42934;54.294;18.598;2022-09-14T08:44:51;99444.81;;;15.89;76.73
57048;BME280;42934;54.294;18.598;2022-09-14T08:47:25;99448.06;;;15.93;76.19
57048;BME280;42934;54.294;18.598;2022-09-14T08:50:00;99454.78;;;16.10;76.64
57048;BME280;42934;54.294;18.598;2022-09-14T08:52:32;99450.09;;;16.13;75.63
57048;BME280;42934;54.294;18.598;2022-09-14T08:55:17;99459.03;;;16.24;76.25
57048;BME280;42934;54.294;18.598;2022-09-14T08:57:50;99449.16;;;16.26;75.92
57048;BME280;42934;54.294;18.598;2022-09-14T09:00:24;99459.53;;;16.29;75.96
57048;BME280;42934;54.294;18.598;2022-09-14T09:03:08;99448.81;;;16.30;75.04
57048;BME280;42934;54.294;18.598;2022-09-14T09:05:47;99453.16;;;16.31;74.76
57048;BME280;42934;54.294;18.598;2022-09-14T09:08:26;99462.22;;;16.40;75.51
57048;BME280;42934;54.294;18.598;2022-09-14T09:10:59;99456.44;;;16.46;75.19
57048;BME280;42934;54.294;18.598;2022-09-14T09:13:35;99456.31;;;16.37;74.16
57048;BME280;42934;54.294;18.598;2022-09-14T09:16:09;99460.63;;;16.38;75.07
57048;BME280;42934;54.294;18.598;2022-09-14T09:18:41;99464.59;;;16.32;75.13
57048;BME280;42934;54.294;18.598;2022-09-14T09:21:16;99466.72;;;16.16;75.30
57048;BME280;42934;54.294;18.598;2022-09-14T09:23:47;99469.75;;;16.22;75.83
57048;BME280;42934;54.294;18.598;2022-09-14T09:26:24;99468.16;;;16.20;75.48
57048;BME280;42934;54.294;18.598;2022-09-14T09:28:57;99475.59;;;16.15;75.79
57048;BME280;42934;54.294;18.598;2022-09-14T09:31:31;99467.88;;;16.11;76.20
57048;BME280;42934;54.294;18.598;2022-09-14T09:34:25;99461.50;;;16.14;75.88
57048;BME280;42934;54.294;18.598;2022-09-14T09:37:13;99468.06;;;16.21;76.03
57048;BME280;42934;54.294;18.598;2022-09-14T09:39:44;99475.16;;;16.21;75.97
57048;BME280;42934;54.294;18.598;2022-09-14T09:42:20;99465.50;;;16.20;75.83
57048;BME280;42934;54.294;18.598;2022-09-14T09:44:55;99462.16;;;16.29;75.63
57048;BME280;42934;54.294;18.598;2022-09-14T09:47:32;99466.53;;;16.30;75.39
57048;BME280;42934;54.294;18.598;2022-09-14T09:50:05;99468.66;;;16.25;74.60
57048;BME280;42934;54.294;18.598;2022-09-14T09:52:35;99465.47;;;16.44;74.79
57048;BME280;42934;54.294;18.598;2022-09-14T09:55:07;99461.28;;;16.52;74.69
57048;BME280;42934;54.294;18.598;2022-09-14T09:57:36;99462.00;;;16.54;74.23
57048;BME280;42934;54.294;18.598;2022-09-14T10:00:19;99459.47;;;16.64;74.33
57048;BME280;42934;54.294;18.598;2022-09-14T10:02:49;99457.56;;;16.66;73.48
57048;BME280;42934;54.294;18.598;2022-09-14T10:05:21;99458.91;;;16.72;73.23
57048;BME280;42934;54.294;18.598;2022-09-14T10:07:54;99463.19;;;16.86;73.33
57048;BME280;42934;54.294;18.598;2022-09-14T10:10:39;99457.50;;;16.90;72.60
57048;BME280;42934;54.294;18.598;2022-09-14T10:13:20;99455.59;;;17.03;72.97
57048;BME280;42934;54.294;18.598;2022-09-14T10:15:53;99463.19;;;17.19;72.62
57048;BME280;42934;54.294;18.598;2022-09-14T10:18:33;99465.81;;;17.31;72.16
57048;BME280;42934;54.294;18.598;2022-09-14T10:21:07;99457.13;;;17.40;71.75
57048;BME280;42934;54.294;18.598;2022-09-14T10:23:38;99464.50;;;17.47;71.02
57048;BME280;42934;54.294;18.598;2022-09-14T10:26:23;99454.22;;;17.54;71.13
57048;BME280;42934;54.294;18.598;2022-09-14T10:28:54;99460.50;;;17.42;70.23
57048;BME280;42934;54.294;18.598;2022-09-14T10:31:44;99467.75;;;17.40;70.87
57048;BME280;42934;54.294;18.598;2022-09-14T10:34:18;99472.56;;;17.35;70.30
57048;BME280;42934;54.294;18.598;2022-09-14T10:36:52;99470.88;;;17.34;70.09
57048;BME280;42934;54.294;18.598;2022-09-14T10:39:29;99465.44;;;17.46;70.37
57048;BME280;42934;54.294;18.598;2022-09-14T10:42:06;99472.66;;;17.56;69.67
57048;BME280;42934;54.294;18.598;2022-09-14T10:50:38;99469.38;;;17.86;69.15
57048;BME280;42934;54.294;18.598;2022-09-14T10:53:19;99456.66;;;18.01;68.95
57048;BME280;42934;54.294;18.598;2022-09-14T10:55:56;99461.53;;;18.16;68.74
57048;BME280;42934;54.294;18.598;2022-09-14T10:58:38;99457.41;;;18.24;68.47
57048;BME280;42934;54.294;18.598;2022-09-14T11:01:24;99462.78;;;18.33;67.82
57048;BME280;42934;54.294;18.598;2022-09-14T11:04:05;99462.31;;;18.70;67.45
57048;BME280;42934;54.294;18.598;2022-09-14T11:06:44;99449.66;;;19.55;65.62
57048;BME280;42934;54.294;18.598;2022-09-14T11:09:21;99451.53;;;21.08;60.95
57048;BME280;42934;54.294;18.598;2022-09-14T11:12:01;99450.34;;;20.93;59.30
57048;BME280;42934;54.294;18.598;2022-09-14T11:14:49;99461.94;;;20.06;58.29
57048;BME280;42934;54.294;18.598;2022-09-14T11:20:24;99475.44;;;18.83;63.38
57048;BME280;42934;54.294;18.598;2022-09-14T11:23:03;99463.09;;;18.61;63.77
57048;BME280;42934;54.294;18.598;2022-09-14T11:25:44;99477.16;;;18.52;64.74
57048;BME280;42934;54.294;18.598;2022-09-14T11:28:18;99472.41;;;18.34;64.42
57048;BME280;42934;54.294;18.598;2022-09-14T11:30:54;99466.72;;;18.18;64.68
57048;BME280;42934;54.294;18.598;2022-09-14T11:33:29;99463.38;;;18.05;64.72
57048;BME280;42934;54.294;18.598;2022-09-14T11:36:02;99468.22;;;18.00;65.55
57048;BME280;42934;54.294;18.598;2022-09-14T11:38:39;99469.44;;;17.96;65.51
57048;BME280;42934;54.294;18.598;2022-09-14T11:41:18;99475.59;;;17.96;65.80
57048;BME280;42934;54.294;18.598;2022-09-14T11:43:51;99469.44;;;17.96;66.20
57048;BME280;42934;54.294;18.598;2022-09-14T11:46:26;99461.00;;;17.90;64.24
57048;BME280;42934;54.294;18.598;2022-09-14T11:49:09;99479.38;;;17.82;64.97
57048;BME280;42934;54.294;18.598;2022-09-14T11:51:45;99472.13;;;17.73;64.90
57048;BME280;42934;54.294;18.598;2022-09-14T11:54:17;99479.28;;;17.84;65.59
57048;BME280;42934;54.294;18.598;2022-09-14T11:56:48;99475.88;;;17.70;65.33
57048;BME280;42934;54.294;18.598;2022-09-14T11:59:42;99469.22;;;17.76;65.69
57048;BME280;42934;54.294;18.598;2022-09-14T12:05:37;99464.56;;;17.68;66.55
57048;BME280;42934;54.294;18.598;2022-09-14T12:08:35;99472.06;;;17.52;65.38
57048;BME280;42934;54.294;18.598;2022-09-14T12:11:29;99475.19;;;17.57;63.65
57048;BME280;42934;54.294;18.598;2022-09-14T12:14:33;99476.66;;;17.50;63.50
57048;BME280;42934;54.294;18.598;2022-09-14T12:17:21;99485.34;;;17.41;63.15
57048;BME280;42934;54.294;18.598;2022-09-14T12:20:33;99460.25;;;17.45;63.58
57048;BME280;42934;54.294;18.598;2022-09-14T12:26:05;99466.91;;;17.51;64.19
57048;BME280;42934;54.294;18.598;2022-09-14T12:28:40;99469.13;;;17.66;64.17
57048;BME280;42934;54.294;18.598;2022-09-14T12:31:58;99476.03;;;17.80;63.18
57048;BME280;42934;54.294;18.598;2022-09-14T12:34:30;99473.84;;;17.85;63.67
57048;BME280;42934;54.294;18.598;2022-09-14T12:37:28;99469.03;;;17.68;62.50
57048;BME280;42934;54.294;18.598;2022-09-14T12:46:39;99478.69;;;17.69;63.97
57048;BME280;42934;54.294;18.598;2022-09-14T12:52:26;99482.44;;;17.55;64.79
57048;BME280;42934;54.294;18.598;2022-09-14T12:55:09;99487.16;;;17.52;65.03
57048;BME280;42934;54.294;18.598;2022-09-14T12:57:53;99481.50;;;17.45;65.31
57048;BME280;42934;54.294;18.598;2022-09-14T13:00:25;99485.72;;;17.36;65.23
57048;BME280;42934;54.294;18.598;2022-09-14T13:03:13;99474.03;;;17.39;65.31
57048;BME280;42934;54.294;18.598;2022-09-14T13:05:47;99466.28;;;17.47;65.04
57048;BME280;42934;54.294;18.598;2022-09-14T13:08:21;99471.28;;;17.73;65.31
57048;BME280;42934;54.294;18.598;2022-09-14T13:10:51;99474.94;;;17.83;64.31
57048;BME280;42934;54.294;18.598;2022-09-14T13:13:24;99478.00;;;17.99;64.88
57048;BME280;42934;54.294;18.598;2022-09-14T13:15:56;99479.22;;;18.06;63.17
57048;BME280;42934;54.294;18.598;2022-09-14T13:18:31;99482.44;;;18.10;63.85
57048;BME280;42934;54.294;18.598;2022-09-14T13:21:11;99483.00;;;17.92;63.66
57048;BME280;42934;54.294;18.598;2022-09-14T13:23:44;99483.22;;;18.01;64.37
57048;BME280;42934;54.294;18.598;2022-09-14T13:26:17;99477.50;;;18.05;64.62
57048;BME280;42934;54.294;18.598;2022-09-14T13:28:49;99472.09;;;18.28;64.04
57048;BME280;42934;54.294;18.598;2022-09-14T13:31:25;99463.09;;;18.40;63.86
57048;BME280;42934;54.294;18.598;2022-09-14T13:33:57;99467.63;;;18.49;63.63
57048;BME280;42934;54.294;18.598;2022-09-14T13:36:29;99468.28;;;18.63;63.79
57048;BME280;42934;54.294;18.598;2022-09-14T13:39:01;99468.59;;;18.69;63.10
57048;BME280;42934;54.294;18.598;2022-09-14T13:41:32;99471.16;;;18.71;62.67
57048;BME280;42934;54.294;18.598;2022-09-14T13:44:04;99468.00;;;18.77;62.76
57048;BME280;42934;54.294;18.598;2022-09-14T13:46:34;99468.16;;;18.85;62.73
57048;BME280;42934;54.294;18.598;2022-09-14T13:49:07;99465.38;;;18.87;62.11
57048;BME280;42934;54.294;18.598;2022-09-14T13:51:37;99466.53;;;18.94;62.27